sensor_id;sensor_type;location;lat;lon;timestamp;pressure;altitude;pressure_sealevel;temperature;humidity
34185;BME280;20454;48.100;11.776;2022-11-03T00:01:37;95903.78;;;5.68;100.00
34185;BME280;20454;48.100;11.776;2022-11-03T00:04:09;95904.31;;;5.70;100.00
34185;BME280;20454;48.100;11.776;2022-11-03T00:06:36;95900.47;;;5.66;100.00
34185;BME280;20454;48.100;11.776;2022-11-03T00:09:06;95894.66;;;5.68;100.00
34185;BME280;20454;48.100;11.776;2022-11-03T00:11:34;95895.78;;;5.67;100.00
34185;BME280;20454;48.100;11.776;2022-11-03T00:14:00;95888.88;;;5.64;100.00
34185;BME280;20454;48.100;11.776;2022-11-03T00:16:26;95888.34;;;5.62;100.00
34185;BME280;20454;48.100;11.776;2022-11-03T00:18:52;95893.28;;;5.65;100.00
34185;BME280;20454;48.100;11.776;2022-11-03T00:21:19;95893.03;;;5.62;100.00
34185;BME280;20454;48.100;11.776;2022-11-03T00:23:45;95885.59;;;5.62;100.00
34185;BME280;20454;48.100;11.776;2022-11-03T00:26:12;95881.72;;;5.63;100.00
34185;BME280;20454;48.100;11.776;2022-11-03T00:28:41;95878.13;;;5.63;100.00
34185;BME280;20454;48.100;11.776;2022-11-03T00:31:11;95871.25;;;5.60;100.00
34185;BME280;20454;48.100;11.776;2022-11-03T00:33:38;95866.53;;;5.61;100.00
34185;BME280;20454;48.100;11.776;2022-11-03T00:36:06;95860.75;;;5.57;100.00
34185;BME280;20454;48.100;11.776;2022-11-03T00:38:33;95850.84;;;5.56;100.00
34185;BME280;20454;48.100;11.776;2022-11-03T00:41:01;95850.84;;;5.56;100.00
34185;BME280;20454;48.100;11.776;2022-11-03T00:43:29;95850.25;;;5.59;100.00
34185;BME280;20454;48.100;11.776;2022-11-03T00:45:56;95856.91;;;5.58;100.00
34185;BME280;20454;48.100;11.776;2022-11-03T00:48:22;95835.13;;;5.52;100.00
34185;BME280;20454;48.100;11.776;2022-11-03T00:53:37;95857.16;;;5.62;100.00
34185;BME280;20454;48.100;11.776;2022-11-03T00:56:04;95848.06;;;5.61;100.00
34185;BME280;20454;48.100;11.776;2022-11-03T00:58:31;95853.28;;;5.63;100.00
34185;BME280;20454;48.100;11.776;2022-11-03T01:01:06;95832.88;;;5.64;100.00
34185;BME280;20454;48.100;11.776;2022-11-03T01:03:38;95823.75;;;5.68;100.00
34185;BME280;20454;48.100;11.776;2022-11-03T01:06:11;95815.16;;;5.70;100.00
34185;BME280;20454;48.100;11.776;2022-11-03T01:08:55;95823.69;;;5.78;100.00
34185;BME280;20454;48.100;11.776;2022-11-03T01:11:23;95820.66;;;5.85;100.00
34185;BME280;20454;48.100;11.776;2022-11-03T01:14:10;95818.69;;;5.85;100.00
34185;BME280;20454;48.100;11.776;2022-11-03T01:16:36;95800.75;;;5.88;100.00
34185;BME280;20454;48.100;11.776;2022-11-03T01:19:03;95816.72;;;5.96;100.00
34185;BME280;20454;48.100;11.776;2022-11-03T01:21:29;95811.44;;;5.99;100.00
34185;BME280;20454;48.100;11.776;2022-11-03T01:23:54;95806.16;;;6.03;100.00
34185;BME280;20454;48.100;11.776;2022-11-03T01:26:20;95798.44;;;6.05;100.00
34185;BME280;20454;48.100;11.776;2022-11-03T01:28:47;95795.69;;;6.05;100.00
34185;BME280;20454;48.100;11.776;2022-11-03T01:31:20;95792.34;;;6.08;100.00
34185;BME280;20454;48.100;11.776;2022-11-03T01:33:51;95784.56;;;6.10;100.00
34185;BME280;20454;48.100;11.776;2022-11-03T01:36:17;95776.28;;;6.10;100.00
34185;BME280;20454;48.100;11.776;2022-11-03T01:38:43;95768.56;;;6.12;100.00
34185;BME280;20454;48.100;11.776;2022-11-03T01:41:15;95776.53;;;6.13;100.00
34185;BME280;20454;48.100;11.776;2022-11-03T01:43:42;95770.22;;;6.13;100.00
34185;BME280;20454;48.100;11.776;2022-11-03T01:46:22;95765.81;;;6.12;100.00
34185;BME280;20454;48.100;11.776;2022-11-03T01:49:02;95777.38;;;6.14;100.00
34185;BME280;20454;48.100;11.776;2022-11-03T01:51:31;95775.72;;;6.13;100.00
34185;BME280;20454;48.100;11.776;2022-11-03T01:54:05;95777.09;;;6.15;100.00
34185;BME280;20454;48.100;11.776;2022-11-03T01:56:35;95770.75;;;6.15;100.00
34185;BME280;20454;48.100;11.776;2022-11-03T01:59:02;95779.28;;;6.18;100.00
34185;BME280;20454;48.100;11.776;2022-11-03T02:01:29;95778.44;;;6.18;100.00
34185;BME280;20454;48.100;11.776;2022-11-03T02:04:10;95776.50;;;6.18;100.00
34185;BME280;20454;48.100;11.776;2022-11-03T02:06:37;95774.03;;;6.17;100.00
34185;BME280;20454;48.100;11.776;2022-11-03T02:09:06;95775.16;;;6.16;100.00
34185;BME280;20454;48.100;11.776;2022-11-03T02:11:33;95761.94;;;6.13;100.00
34185;BME280;20454;48.100;11.776;2022-11-03T02:14:18;95751.16;;;6.11;100.00
34185;BME280;20454;48.100;11.776;2022-11-03T02:16:56;95747.56;;;6.11;100.00
34185;BME280;20454;48.100;11.776;2022-11-03T02:20:05;95748.41;;;6.11;100.00
34185;BME280;20454;48.100;11.776;2022-11-03T02:26:01;95758.34;;;6.07;100.00
34185;BME280;20454;48.100;11.776;2022-11-03T02:28:30;95749.03;;;6.03;100.00
34185;BME280;20454;48.100;11.776;2022-11-03T02:31:47;95744.88;;;6.01;100.00
34185;BME280;20454;48.100;11.776;2022-11-03T02:34:18;95747.97;;;5.94;100.00
34185;BME280;20454;48.100;11.776;2022-11-03T02:36:52;95749.06;;;5.93;100.00
34185;BME280;20454;48.100;11.776;2022-11-03T02:39:44;95748.03;;;5.89;100.00
34185;BME280;20454;48.100;11.776;2022-11-03T02:42:11;95739.19;;;5.87;100.00
34185;BME280;20454;48.100;11.776;2022-11-03T02:44:39;95732.59;;;5.78;100.00
34185;BME280;20454;48.100;11.776;2022-11-03T02:47:10;95740.06;;;5.78;100.00
34185;BME280;20454;48.100;11.776;2022-11-03T02:49:46;95734.56;;;5.73;100.00
34185;BME280;20454;48.100;11.776;2022-11-03T02:55:34;95735.13;;;5.70;100.00
34185;BME280;20454;48.100;11.776;2022-11-03T02:58:23;95731.59;;;5.64;100.00
34185;BME280;20454;48.100;11.776;2022-11-03T05:31:21;95558.34;;;5.90;100.00
34185;BME280;20454;48.100;11.776;2022-11-03T05:33:51;95562.69;;;5.96;100.00
34185;BME280;20454;48.100;11.776;2022-11-03T05:36:23;95555.25;;;5.96;100.00
34185;BME280;20454;48.100;11.776;2022-11-03T05:38:50;95560.41;;;6.03;100.00
34185;BME280;20454;48.100;11.776;2022-11-03T05:41:26;95552.38;;;6.06;100.00
34185;BME280;20454;48.100;11.776;2022-11-03T05:44:00;95537.75;;;6.06;100.00
34185;BME280;20454;48.100;11.776;2022-11-03T05:46:29;95545.69;;;6.12;100.00
34185;BME280;20454;48.100;11.776;2022-11-03T05:49:00;95543.97;;;6.16;100.00
34185;BME280;20454;48.100;11.776;2022-11-03T05:51:40;95551.66;;;6.19;100.00
34185;BME280;20454;48.100;11.776;2022-11-03T05:54:21;95551.34;;;6.26;100.00
34185;BME280;20454;48.100;11.776;2022-11-03T05:56:48;95544.13;;;6.25;100.00
34185;BME280;20454;48.100;11.776;2022-11-03T05:59:22;95542.50;;;6.24;100.00
34185;BME280;20454;48.100;11.776;2022-11-03T06:01:50;95546.03;;;6.29;100.00
34185;BME280;20454;48.100;11.776;2022-11-03T06:04:35;95536.31;;;6.32;100.00
34185;BME280;20454;48.100;11.776;2022-11-03T06:07:21;95537.91;;;6.38;100.00
34185;BME280;20454;48.100;11.776;2022-11-03T06:09:48;95535.38;;;6.41;100.00
34185;BME280;20454;48.100;11.776;2022-11-03T06:12:17;95528.16;;;6.45;100.00
34185;BME280;20454;48.100;11.776;2022-11-03T06:14:44;95541.59;;;6.52;100.00
34185;BME280;20454;48.100;11.776;2022-11-03T06:17:21;95536.28;;;6.55;100.00
34185;BME280;20454;48.100;11.776;2022-11-03T06:19:51;95536.53;;;6.59;100.00
34185;BME280;20454;48.100;11.776;2022-11-03T06:22:21;95542.28;;;6.62;100.00
34185;BME280;20454;48.100;11.776;2022-11-03T06:24:48;95527.34;;;6.63;100.00
34185;BME280;20454;48.100;11.776;2022-11-03T06:27:19;95531.41;;;6.71;100.00
34185;BME280;20454;48.100;11.776;2022-11-03T06:29:55;95537.66;;;6.76;100.00
34185;BME280;20454;48.100;11.776;2022-11-03T06:32:22;95532.97;;;6.77;100.00
34185;BME280;20454;48.100;11.776;2022-11-03T06:34:56;95530.44;;;6.80;100.00
34185;BME280;20454;48.100;11.776;2022-11-03T06:37:34;95529.03;;;6.83;100.00
34185;BME280;20454;48.100;11.776;2022-11-03T06:42:36;95530.50;;;6.94;100.00
34185;BME280;20454;48.100;11.776;2022-11-03T06:45:18;95526.03;;;6.98;100.00
34185;BME280;20454;48.100;11.776;2022-11-03T06:47:45;95522.38;;;7.02;100.00
34185;BME280;20454;48.100;11.776;2022-11-03T06:50:30;95524.56;;;7.05;100.00
34185;BME280;20454;48.100;11.776;2022-11-03T06:52:58;95518.09;;;7.10;100.00
34185;BME280;20454;48.100;11.776;2022-11-03T06:55:32;95506.72;;;7.11;100.00
34185;BME280;20454;48.100;11.776;2022-11-03T06:58:10;95506.72;;;7.11;100.00
34185;BME280;20454;48.100;11.776;2022-11-03T07:00:40;95510.63;;;7.10;100.00
34185;BME280;20454;48.100;11.776;2022-11-03T07:03:31;95519.56;;;7.21;100.00
34185;BME280;20454;48.100;11.776;2022-11-03T07:08:42;95519.00;;;7.24;100.00
34185;BME280;20454;48.100;11.776;2022-11-03T07:11:50;95514.41;;;7.33;100.00
34185;BME280;20454;48.100;11.776;2022-11-03T07:14:22;95524.88;;;7.36;100.00
34185;BME280;20454;48.100;11.776;2022-11-03T07:16:51;95516.19;;;7.42;100.00
34185;BME280;20454;48.100;11.776;2022-11-03T07:19:24;95505.94;;;7.43;100.00
34185;BME280;20454;48.100;11.776;2022-11-03T07:22:01;95504.22;;;7.47;100.00
34185;BME280;20454;48.100;11.776;2022-11-03T07:24:32;95499.72;;;7.51;100.00
34185;BME280;20454;48.100;11.776;2022-11-03T07:27:12;95503.22;;;7.56;100.00
34185;BME280;20454;48.100;11.776;2022-11-03T07:29:40;95493.78;;;7.57;100.00
34185;BME280;20454;48.100;11.776;2022-11-03T07:32:31;95489.59;;;7.60;100.00
34185;BME280;20454;48.100;11.776;2022-11-03T07:37:43;95487.34;;;7.62;100.00
34185;BME280;20454;48.100;11.776;2022-11-03T07:40:17;95493.00;;;7.70;100.00
34185;BME280;20454;48.100;11.776;2022-11-03T07:42:43;95487.47;;;7.70;100.00
34185;BME280;20454;48.100;11.776;2022-11-03T07:48:09;95491.50;;;7.78;100.00
34185;BME280;20454;48.100;11.776;2022-11-03T07:50:39;95485.84;;;7.83;100.00
34185;BME280;20454;48.100;11.776;2022-11-03T07:56:23;95474.66;;;8.01;100.00
34185;BME280;20454;48.100;11.776;2022-11-03T08:01:48;95468.47;;;8.23;100.00
34185;BME280;20454;48.100;11.776;2022-11-03T08:04:32;95468.78;;;8.35;100.00
34185;BME280;20454;48.100;11.776;2022-11-03T08:06:58;95463.50;;;8.47;100.00
34185;BME280;20454;48.100;11.776;2022-11-03T08:09:24;95463.78;;;8.59;100.00
34185;BME280;20454;48.100;11.776;2022-11-03T08:11:50;95457.84;;;8.65;100.00
34185;BME280;20454;48.100;11.776;2022-11-03T08:14:16;95442.22;;;8.69;100.00
34185;BME280;20454;48.100;11.776;2022-11-03T08:16:42;95440.97;;;8.75;100.00
34185;BME280;20454;48.100;11.776;2022-11-03T08:19:08;95430.94;;;8.88;100.00
34185;BME280;20454;48.100;11.776;2022-11-03T08:21:34;95435.59;;;8.92;100.00
34185;BME280;20454;48.100;11.776;2022-11-03T08:24:00;95427.19;;;9.06;100.00
34185;BME280;20454;48.100;11.776;2022-11-03T08:26:26;95431.31;;;9.08;100.00
34185;BME280;20454;48.100;11.776;2022-11-03T08:28:52;95420.31;;;9.03;100.00
34185;BME280;20454;48.100;11.776;2022-11-03T08:31:18;95410.34;;;9.02;100.00
34185;BME280;20454;48.100;11.776;2022-11-03T08:33:44;95423.34;;;9.15;100.00
34185;BME280;20454;48.100;11.776;2022-11-03T08:36:10;95401.78;;;9.12;100.00
34185;BME280;20454;48.100;11.776;2022-11-03T08:38:36;95405.25;;;9.18;100.00
34185;BME280;20454;48.100;11.776;2022-11-03T08:41:02;95401.72;;;9.26;100.00
34185;BME280;20454;48.100;11.776;2022-11-03T08:43:28;95392.13;;;9.32;100.00
34185;BME280;20454;48.100;11.776;2022-11-03T08:45:54;95386.63;;;9.40;100.00
34185;BME280;20454;48.100;11.776;2022-11-03T08:48:22;95377.53;;;9.48;100.00
34185;BME280;20454;48.100;11.776;2022-11-03T08:50:48;95368.44;;;9.56;100.00
34185;BME280;20454;48.100;11.776;2022-11-03T08:53:19;95366.63;;;9.60;100.00
34185;BME280;20454;48.100;11.776;2022-11-03T08:55:45;95368.19;;;9.74;100.00
34185;BME280;20454;48.100;11.776;2022-11-03T09:11:08;95351.53;;;10.13;99.86
34185;BME280;20454;48.100;11.776;2022-11-03T09:13:34;95345.00;;;10.18;99.84
34185;BME280;20454;48.100;11.776;2022-11-03T09:16:00;95340.06;;;10.15;99.35
34185;BME280;20454;48.100;11.776;2022-11-03T09:18:25;95349.72;;;10.17;99.33
34185;BME280;20454;48.100;11.776;2022-11-03T09:20:51;95350.38;;;10.14;99.33
34185;BME280;20454;48.100;11.776;2022-11-03T09:23:17;95342.66;;;10.11;100.00
34185;BME280;20454;48.100;11.776;2022-11-03T09:25:43;95336.78;;;10.13;100.00
34185;BME280;20454;48.100;11.776;2022-11-03T09:28:08;95309.16;;;10.08;100.00
34185;BME280;20454;48.100;11.776;2022-11-03T09:30:34;95333.56;;;10.36;100.00
34185;BME280;20454;48.100;11.776;2022-11-03T09:33:00;95334.25;;;10.50;99.67
34185;BME280;20454;48.100;11.776;2022-11-03T09:35:25;95329.19;;;10.69;98.61
34185;BME280;20454;48.100;11.776;2022-11-03T09:37:52;95328.19;;;10.91;97.59
34185;BME280;20454;48.100;11.776;2022-11-03T09:40:18;95310.16;;;11.14;97.29
34185;BME280;20454;48.100;11.776;2022-11-03T09:42:46;95311.41;;;11.42;95.12
34185;BME280;20454;48.100;11.776;2022-11-03T09:45:11;95305.28;;;11.65;93.45
34185;BME280;20454;48.100;11.776;2022-11-03T09:47:39;95304.06;;;12.12;93.07
34185;BME280;20454;48.100;11.776;2022-11-03T09:50:16;95284.94;;;12.72;86.66
34185;BME280;20454;48.100;11.776;2022-11-03T09:52:45;95285.91;;;13.17;83.89
34185;BME280;20454;48.100;11.776;2022-11-03T09:55:23;95272.84;;;13.66;82.54
34185;BME280;20454;48.100;11.776;2022-11-03T09:57:53;95273.81;;;14.30;80.38
34185;BME280;20454;48.100;11.776;2022-11-03T10:00:21;95265.88;;;14.95;76.98
34185;BME280;20454;48.100;11.776;2022-11-03T10:02:48;95269.88;;;15.49;72.23
34185;BME280;20454;48.100;11.776;2022-11-03T10:05:33;95273.28;;;16.01;69.41
34185;BME280;20454;48.100;11.776;2022-11-03T10:08:06;95258.69;;;16.42;67.37
34185;BME280;20454;48.100;11.776;2022-11-03T10:10:35;95254.41;;;16.32;66.74
34185;BME280;20454;48.100;11.776;2022-11-03T10:13:04;95249.75;;;16.05;66.33
34185;BME280;20454;48.100;11.776;2022-11-03T10:15:33;95253.78;;;15.77;66.81
34185;BME280;20454;48.100;11.776;2022-11-03T10:17:59;95243.81;;;15.64;68.14
34185;BME280;20454;48.100;11.776;2022-11-03T10:20:28;95253.59;;;15.70;69.24
34185;BME280;20454;48.100;11.776;2022-11-03T10:22:54;95238.59;;;15.78;67.55
34185;BME280;20454;48.100;11.776;2022-11-03T10:25:40;95235.50;;;15.67;67.68
34185;BME280;20454;48.100;11.776;2022-11-03T10:28:25;95229.34;;;15.46;68.46
34185;BME280;20454;48.100;11.776;2022-11-03T10:30:57;95217.84;;;15.24;69.53
34185;BME280;20454;48.100;11.776;2022-11-03T10:33:35;95222.28;;;15.09;71.55
34185;BME280;20454;48.100;11.776;2022-11-03T10:38:39;95213.38;;;14.92;73.89
34185;BME280;20454;48.100;11.776;2022-11-03T10:41:15;95210.25;;;14.82;74.66
34185;BME280;20454;48.100;11.776;2022-11-03T10:43:44;95216.09;;;14.77;74.29
34185;BME280;20454;48.100;11.776;2022-11-03T10:46:23;95208.78;;;14.72;73.96
34185;BME280;20454;48.100;11.776;2022-11-03T10:49:11;95209.84;;;14.68;74.78
34185;BME280;20454;48.100;11.776;2022-11-03T10:51:40;95207.63;;;14.61;75.11
34185;BME280;20454;48.100;11.776;2022-11-03T10:54:13;95205.19;;;14.60;74.72
34185;BME280;20454;48.100;11.776;2022-11-03T10:56:41;95201.34;;;14.64;74.67
34185;BME280;20454;48.100;11.776;2022-11-03T10:59:23;95197.34;;;14.65;74.47
34185;BME280;20454;48.100;11.776;2022-11-03T11:01:57;95189.31;;;14.64;74.87
34185;BME280;20454;48.100;11.776;2022-11-03T11:04:23;95183.13;;;14.70;74.38
34185;BME280;20454;48.100;11.776;2022-11-03T11:06:49;95177.63;;;14.74;74.53
34185;BME280;20454;48.100;11.776;2022-11-03T11:09:24;95172.41;;;14.60;73.28
34185;BME280;20454;48.100;11.776;2022-11-03T11:12:18;95181.09;;;14.43;71.91
34185;BME280;20454;48.100;11.776;2022-11-03T11:14:57;95181.75;;;14.25;73.99
34185;BME280;20454;48.100;11.776;2022-11-03T11:17:46;95172.75;;;14.19;75.61
34185;BME280;20454;48.100;11.776;2022-11-03T11:20:16;95167.16;;;14.19;76.38
34185;BME280;20454;48.100;11.776;2022-11-03T11:22:47;95160.25;;;14.17;75.35
34185;BME280;20454;48.100;11.776;2022-11-03T11:25:14;95169.47;;;14.17;75.58
34185;BME280;20454;48.100;11.776;2022-11-03T11:27:53;95178.34;;;14.19;75.44
34185;BME280;20454;48.100;11.776;2022-11-03T11:37:47;95166.34;;;14.19;75.20
34185;BME280;20454;48.100;11.776;2022-11-03T11:51:34;95163.28;;;14.90;75.55
34185;BME280;20454;48.100;11.776;2022-11-03T11:54:07;95158.28;;;15.11;74.70
34185;BME280;20454;48.100;11.776;2022-11-03T11:56:43;95149.75;;;15.35;73.11
34185;BME280;20454;48.100;11.776;2022-11-03T11:59:21;95134.19;;;15.53;72.02
34185;BME280;20454;48.100;11.776;2022-11-03T12:01:53;95137.25;;;15.64;71.88
34185;BME280;20454;48.100;11.776;2022-11-03T12:06:48;95136.91;;;15.65;72.77
34185;BME280;20454;48.100;11.776;2022-11-03T12:09:22;95130.28;;;15.58;74.27
34185;BME280;20454;48.100;11.776;2022-11-03T12:11:55;95131.47;;;15.57;74.85
34185;BME280;20454;48.100;11.776;2022-11-03T12:19:52;95115.22;;;15.97;75.09
34185;BME280;20454;48.100;11.776;2022-11-03T12:25:01;95102.41;;;16.68;72.41
34185;BME280;20454;48.100;11.776;2022-11-03T12:29:59;95102.28;;;17.25;68.56
34185;BME280;20454;48.100;11.776;2022-11-03T12:32:27;95089.63;;;17.35;68.56
34185;BME280;20454;48.100;11.776;2022-11-03T12:34:53;95089.34;;;17.40;68.14
34185;BME280;20454;48.100;11.776;2022-11-03T12:37:20;95089.72;;;17.38;67.64
34185;BME280;20454;48.100;11.776;2022-11-03T12:39:46;95075.66;;;17.19;67.58
34185;BME280;20454;48.100;11.776;2022-11-03T12:42:11;95087.47;;;17.06;68.61
34185;BME280;20454;48.100;11.776;2022-11-03T12:44:37;95085.06;;;16.85;69.92
34185;BME280;20454;48.100;11.776;2022-11-03T12:47:03;95079.84;;;16.65;70.30
34185;BME280;20454;48.100;11.776;2022-11-03T12:49:29;95088.63;;;16.44;71.38
34185;BME280;20454;48.100;11.776;2022-11-03T12:51:55;95078.09;;;16.22;72.34
34185;BME280;20454;48.100;11.776;2022-11-03T12:54:21;95087.50;;;15.95;73.42
34185;BME280;20454;48.100;11.776;2022-11-03T12:56:47;95085.69;;;15.68;74.88
34185;BME280;20454;48.100;11.776;2022-11-03T12:59:13;95098.75;;;15.45;76.48
34185;BME280;20454;48.100;11.776;2022-11-03T13:01:38;95084.06;;;15.21;77.79
34185;BME280;20454;48.100;11.776;2022-11-03T13:04:04;95088.03;;;15.04;79.44
34185;BME280;20454;48.100;11.776;2022-11-03T13:06:31;95075.56;;;14.87;80.76
34185;BME280;20454;48.100;11.776;2022-11-03T13:08:57;95057.19;;;14.74;81.43
34185;BME280;20454;48.100;11.776;2022-11-03T13:11:23;95053.81;;;14.68;82.41
34185;BME280;20454;48.100;11.776;2022-11-03T13:14:07;95052.50;;;14.62;83.08
34185;BME280;20454;48.100;11.776;2022-11-03T13:16:33;95055.63;;;14.61;83.10
34185;BME280;20454;48.100;11.776;2022-11-03T13:19:00;95060.97;;;14.66;83.65
34185;BME280;20454;48.100;11.776;2022-11-03T13:21:25;95048.88;;;14.62;83.35
34185;BME280;20454;48.100;11.776;2022-11-03T13:23:51;95047.16;;;14.57;84.41
34185;BME280;20454;48.100;11.776;2022-11-03T13:26:18;95041.44;;;14.54;83.31
34185;BME280;20454;48.100;11.776;2022-11-03T13:28:44;95023.72;;;14.50;83.60
34185;BME280;20454;48.100;11.776;2022-11-03T13:31:10;95021.66;;;14.47;84.00
34185;BME280;20454;48.100;11.776;2022-11-03T13:33:37;95026.22;;;14.39;84.51
34185;BME280;20454;48.100;11.776;2022-11-03T13:36:03;95018.09;;;14.34;84.54
34185;BME280;20454;48.100;11.776;2022-11-03T13:38:29;95019.06;;;14.26;85.12
34185;BME280;20454;48.100;11.776;2022-11-03T13:40:55;95024.22;;;14.24;85.06
34185;BME280;20454;48.100;11.776;2022-11-03T13:43:20;95008.84;;;14.18;85.72
34185;BME280;20454;48.100;11.776;2022-11-03T13:45:46;95013.97;;;14.16;85.89
34185;BME280;20454;48.100;11.776;2022-11-03T13:48:12;95007.00;;;14.10;86.57
34185;BME280;20454;48.100;11.776;2022-11-03T13:50:38;95005.97;;;14.03;86.77
34185;BME280;20454;48.100;11.776;2022-11-03T13:53:03;94996.31;;;14.00;86.71
34185;BME280;20454;48.100;11.776;2022-11-03T13:55:29;94985.72;;;13.94;87.10
34185;BME280;20454;48.100;11.776;2022-11-03T13:57:55;94981.22;;;13.89;87.90
34185;BME280;20454;48.100;11.776;2022-11-03T14:00:21;94978.56;;;13.81;87.59
34185;BME280;20454;48.100;11.776;2022-11-03T14:02:47;94976.84;;;13.76;88.33
34185;BME280;20454;48.100;11.776;2022-11-03T14:05:15;94987.31;;;13.79;88.43
34185;BME280;20454;48.100;11.776;2022-11-03T14:07:41;94980.47;;;13.77;88.59
34185;BME280;20454;48.100;11.776;2022-11-03T14:10:07;94981.88;;;13.71;89.29
34185;BME280;20454;48.100;11.776;2022-11-03T14:12:33;94981.88;;;13.71;89.09
34185;BME280;20454;48.100;11.776;2022-11-03T14:15:07;94972.09;;;13.65;89.55
34185;BME280;20454;48.100;11.776;2022-11-03T14:17:33;94966.84;;;13.63;90.38
34185;BME280;20454;48.100;11.776;2022-11-03T14:20:01;94962.78;;;13.61;91.20
34185;BME280;20454;48.100;11.776;2022-11-03T14:22:27;94952.66;;;13.56;90.83
34185;BME280;20454;48.100;11.776;2022-11-03T14:24:55;94955.03;;;13.54;91.30
34185;BME280;20454;48.100;11.776;2022-11-03T14:27:21;94952.47;;;13.49;91.10
34185;BME280;20454;48.100;11.776;2022-11-03T14:29:47;94961.47;;;13.43;91.10
34185;BME280;20454;48.100;11.776;2022-11-03T14:32:17;94953.66;;;13.36;92.00
34185;BME280;20454;48.100;11.776;2022-11-03T14:34:43;94959.97;;;13.33;92.33
34185;BME280;20454;48.100;11.776;2022-11-03T14:37:10;94951.25;;;13.23;92.47
34185;BME280;20454;48.100;11.776;2022-11-03T14:39:36;94946.63;;;13.15;93.18
34185;BME280;20454;48.100;11.776;2022-11-03T14:42:08;94948.81;;;13.09;92.98
34185;BME280;20454;48.100;11.776;2022-11-03T14:44:39;94947.34;;;13.00;94.15
34185;BME280;20454;48.100;11.776;2022-11-03T14:47:08;94946.25;;;12.92;94.14
34185;BME280;20454;48.100;11.776;2022-11-03T14:49:35;94929.63;;;12.84;94.72
34185;BME280;20454;48.100;11.776;2022-11-03T14:52:02;94932.06;;;12.73;94.94
34185;BME280;20454;48.100;11.776;2022-11-03T14:54:29;94936.25;;;12.67;95.41
34185;BME280;20454;48.100;11.776;2022-11-03T14:56:56;94932.78;;;12.58;96.17
34185;BME280;20454;48.100;11.776;2022-11-03T14:59:23;94926.16;;;12.51;95.87
34185;BME280;20454;48.100;11.776;2022-11-03T15:01:50;94918.25;;;12.41;96.79
34185;BME280;20454;48.100;11.776;2022-11-03T15:04:16;94924.41;;;12.34;96.98
34185;BME280;20454;48.100;11.776;2022-11-03T15:06:42;94932.19;;;12.29;97.45
34185;BME280;20454;48.100;11.776;2022-11-03T15:09:09;94919.16;;;12.21;97.99
34185;BME280;20454;48.100;11.776;2022-11-03T15:11:36;94918.13;;;12.13;98.52
34185;BME280;20454;48.100;11.776;2022-11-03T15:14:02;94901.47;;;12.05;98.97
34185;BME280;20454;48.100;11.776;2022-11-03T15:16:28;94903.81;;;12.03;99.42
34185;BME280;20454;48.100;11.776;2022-11-03T15:18:54;94900.41;;;11.97;99.78
34185;BME280;20454;48.100;11.776;2022-11-03T15:21:20;94890.19;;;11.89;100.00
34185;BME280;20454;48.100;11.776;2022-11-03T15:23:45;94876.00;;;11.82;100.00
34185;BME280;20454;48.100;11.776;2022-11-03T15:26:11;94882.16;;;11.76;100.00
34185;BME280;20454;48.100;11.776;2022-11-03T15:28:38;94876.78;;;11.71;100.00
34185;BME280;20454;48.100;11.776;2022-11-03T15:31:04;94881.78;;;11.65;100.00
34185;BME280;20454;48.100;11.776;2022-11-03T15:33:30;94883.47;;;11.58;100.00
34185;BME280;20454;48.100;11.776;2022-11-03T15:35:56;94887.09;;;11.58;100.00
34185;BME280;20454;48.100;11.776;2022-11-03T15:38:21;94884.03;;;11.51;100.00
34185;BME280;20454;48.100;11.776;2022-11-03T15:40:47;94879.31;;;11.43;100.00
34185;BME280;20454;48.100;11.776;2022-11-03T15:43:13;94870.38;;;11.38;100.00
34185;BME280;20454;48.100;11.776;2022-11-03T15:45:39;94861.09;;;11.34;100.00
34185;BME280;20454;48.100;11.776;2022-11-03T15:48:05;94863.13;;;11.25;100.00
34185;BME280;20454;48.100;11.776;2022-11-03T15:50:31;94857.91;;;11.23;100.00
34185;BME280;20454;48.100;11.776;2022-11-03T15:52:57;94852.56;;;11.18;100.00
34185;BME280;20454;48.100;11.776;2022-11-03T15:55:24;94843.47;;;11.09;100.00
34185;BME280;20454;48.100;11.776;2022-11-03T15:57:50;94849.25;;;11.04;100.00
34185;BME280;20454;48.100;11.776;2022-11-03T16:00:16;94836.00;;;11.01;100.00
34185;BME280;20454;48.100;11.776;2022-11-03T16:02:48;94834.72;;;10.99;100.00
34185;BME280;20454;48.100;11.776;2022-11-03T16:05:14;94822.06;;;10.89;100.00
34185;BME280;20454;48.100;11.776;2022-11-03T16:07:39;94822.38;;;10.88;100.00
34185;BME280;20454;48.100;11.776;2022-11-03T16:10:06;94813.06;;;10.84;100.00
34185;BME280;20454;48.100;11.776;2022-11-03T16:12:31;94803.94;;;10.83;100.00
34185;BME280;20454;48.100;11.776;2022-11-03T16:14:57;94792.16;;;10.78;100.00
34185;BME280;20454;48.100;11.776;2022-11-03T16:17:23;94776.19;;;10.75;100.00
34185;BME280;20454;48.100;11.776;2022-11-03T16:19:49;94758.88;;;10.69;100.00
34185;BME280;20454;48.100;11.776;2022-11-03T16:22:15;94760.38;;;10.67;100.00
34185;BME280;20454;48.100;11.776;2022-11-03T16:24:41;94775.66;;;10.61;100.00
34185;BME280;20454;48.100;11.776;2022-11-03T16:27:09;94773.69;;;10.61;100.00
34185;BME280;20454;48.100;11.776;2022-11-03T16:29:34;94784.00;;;10.61;100.00
34185;BME280;20454;48.100;11.776;2022-11-03T16:32:00;94780.03;;;10.62;100.00
34185;BME280;20454;48.100;11.776;2022-11-03T16:34:26;94778.09;;;10.62;100.00
34185;BME280;20454;48.100;11.776;2022-11-03T16:36:52;94767.63;;;10.59;100.00
34185;BME280;20454;48.100;11.776;2022-11-03T16:39:17;94771.72;;;10.62;100.00
34185;BME280;20454;48.100;11.776;2022-11-03T16:41:43;94760.13;;;10.60;100.00
34185;BME280;20454;48.100;11.776;2022-11-03T16:44:09;94733.31;;;10.55;100.00
34185;BME280;20454;48.100;11.776;2022-11-03T16:46:35;94744.91;;;10.57;100.00